Pflugerville, Texas
Current Conditions -  °F | °C
As of 2:15 AM on Sunday 21 Dec 2014 (Local Time) from KEDC Reporting Station
Haze Haze  
Wind Chill:   Ceiling: 1900
Heat Index:   Visibility: 3mi
Dew Point:   Wind: 5mph
Humidity: 100%   Direction: 130°SE
Pressure: 30.16"   Gusts: NA
Location:  30.44°N, 97.62°W
Report Text: KEDC 210815Z AUTO 13004KT 3SM BR FEW005 OVC019 09/09 A3016 RMK AO2
Loading
Personal Weather Stations






























Interactive Weather Map New forecast layout! Learn more

10-Day Weather Forecast

Advertisements
Track Severe Weather on mobile